Time;durP1;ratioP1;P1;durP2;ratioP2;P2;SDS_P1;SDS_P2;PMS_P1;PMS_P2;Temp;Humidity;BMP_temperature;BMP_pressure;BME280_temperature;BME280_humidity;BME280_pressure;Samples;Min_cycle;Max_cycle;Signal;HPM_P1;HPM_P2
2022/10/04 00:00:35;;;;;;;10.27;9.27;;;12.40;99.90;;;;;;5015941;28;20952;-64
2022/10/04 00:03:09;;;;;;;10.30;8.60;;;12.40;99.90;;;;;;5016305;28;20434;-63
2022/10/04 00:05:36;;;;;;;10.30;9.40;;;12.40;99.90;;;;;;5015439;28;20462;-63
2022/10/04 00:08:16;;;;;;;10.57;9.67;;;12.40;99.90;;;;;;5016252;28;20425;-64
2022/10/04 00:10:43;;;;;;;10.87;10.00;;;12.30;99.90;;;;;;5015877;28;20432;-63
2022/10/04 00:13:22;;;;;;;10.07;9.30;;;12.30;99.90;;;;;;5016098;28;20597;-64
2022/10/04 00:15:49;;;;;;;9.80;9.00;;;12.30;99.90;;;;;;4998142;28;21018;-64
2022/10/04 00:18:36;;;;;;;10.10;9.20;;;12.40;99.90;;;;;;4997821;28;20428;-64
2022/10/04 00:21:02;;;;;;;10.13;9.10;;;12.30;99.90;;;;;;5015894;28;20888;-64
2022/10/04 00:23:48;;;;;;;10.23;9.23;;;12.30;99.90;;;;;;5014953;28;20429;-64
2022/10/04 00:26:34;;;;;;;9.90;9.10;;;12.30;99.90;;;;;;5014538;28;20433;-64
2022/10/04 00:29:25;;;;;;;9.80;9.00;;;12.20;99.90;;;;;;5015824;28;20449;-64
2022/10/04 00:32:20;;;;;;;10.20;9.50;;;12.20;99.90;;;;;;5015630;28;20401;-63
2022/10/04 00:34:51;;;;;;;10.17;9.37;;;12.20;99.90;;;;;;5015784;28;20501;-64
2022/10/04 00:37:22;;;;;;;10.60;9.73;;;12.30;99.90;;;;;;5014931;28;20456;-64
2022/10/04 00:39:59;;;;;;;11.63;10.57;;;12.20;99.90;;;;;;5015585;28;20467;-63
2022/10/04 00:42:24;;;;;;;10.73;9.83;;;12.30;99.90;;;;;;5014924;28;20398;-64
2022/10/04 00:44:52;;;;;;;10.87;9.97;;;12.20;99.90;;;;;;5015152;28;20440;-64
2022/10/04 00:47:32;;;;;;;9.80;9.00;;;12.20;99.90;;;;;;5014425;28;20182;-64
2022/10/04 00:50:14;;;;;;;9.33;8.53;;;12.20;99.90;;;;;;5015182;28;20441;-64
2022/10/04 00:52:55;;;;;;;9.50;8.80;;;12.20;99.90;;;;;;4997888;28;20403;-64
2022/10/04 00:55:33;;;;;;;9.90;9.00;;;12.20;99.90;;;;;;5014630;28;20496;-64
2022/10/04 00:58:02;;;;;;;10.43;9.30;;;12.20;99.90;;;;;;5014964;28;20803;-64
2022/10/04 01:00:32;;;;;;;9.33;8.63;;;12.20;99.90;;;;;;5014543;28;20406;-64
2022/10/04 01:03:10;;;;;;;9.67;9.00;;;12.20;99.90;;;;;;5015312;28;20425;-64
2022/10/04 01:05:56;;;;;;;10.10;9.27;;;12.10;99.90;;;;;;5014276;28;20504;-64
2022/10/04 01:08:30;;;;;;;9.70;8.90;;;12.10;99.90;;;;;;5014486;28;20744;-64
2022/10/04 01:11:03;;;;;;;9.97;9.33;;;12.20;99.90;;;;;;5014973;28;20402;-63
2022/10/04 01:13:38;;;;;;;10.53;9.33;;;12.20;99.90;;;;;;5014208;28;20415;-64
2022/10/04 01:16:13;;;;;;;10.53;9.63;;;12.20;99.90;;;;;;5014911;28;20477;-63
2022/10/04 01:18:40;;;;;;;9.30;8.40;;;12.20;99.90;;;;;;5014257;28;20405;-64
2022/10/04 01:21:17;;;;;;;9.87;9.00;;;12.20;99.90;;;;;;5014855;28;20414;-63
2022/10/04 01:23:56;;;;;;;9.50;8.57;;;12.20;99.90;;;;;;5015002;28;20423;-64
2022/10/04 01:26:33;;;;;;;9.13;8.43;;;12.20;99.90;;;;;;5014062;28;20825;-64
2022/10/04 01:29:04;;;;;;;10.43;9.53;;;12.20;99.90;;;;;;5014659;28;20503;-63
2022/10/04 01:31:33;;;;;;;9.43;8.63;;;12.20;99.90;;;;;;5014040;28;20449;-64
2022/10/04 01:34:00;;;;;;;10.20;9.30;;;12.20;99.90;;;;;;5014174;28;20943;-64
2022/10/04 01:36:26;;;;;;;10.40;9.50;;;12.30;99.90;;;;;;5013748;28;20916;-64
2022/10/04 01:38:53;;;;;;;10.80;9.00;;;12.20;99.90;;;;;;4947672;28;20421;-64
2022/10/04 01:41:25;;;;;;;9.33;8.53;;;12.30;99.90;;;;;;5013849;28;20406;-64
2022/10/04 01:43:55;;;;;;;9.07;8.17;;;12.20;99.90;;;;;;5014383;28;20448;-63
2022/10/04 01:46:27;;;;;;;10.47;9.60;;;12.20;99.90;;;;;;5013760;28;20459;-64
2022/10/04 01:48:55;;;;;;;9.53;8.83;;;12.20;99.90;;;;;;5014215;28;20425;-63
2022/10/04 01:51:35;;;;;;;9.73;9.03;;;12.30;99.90;;;;;;5013618;28;20437;-64
2022/10/04 01:54:09;;;;;;;10.07;9.03;;;12.20;99.90;;;;;;5014180;28;20404;-64
2022/10/04 01:56:46;;;;;;;9.67;8.90;;;12.20;99.90;;;;;;5013445;28;20888;-64
2022/10/04 01:59:22;;;;;;;9.47;8.57;;;12.30;99.90;;;;;;5014168;28;20410;-64
2022/10/04 02:02:04;;;;;;;10.20;9.30;;;12.20;99.90;;;;;;5013572;28;20406;-63
2022/10/04 02:04:34;;;;;;;9.40;8.70;;;12.30;99.90;;;;;;5013287;28;20410;-64
2022/10/04 02:07:01;;;;;;;9.20;8.50;;;12.20;99.90;;;;;;5014048;28;20549;-64
2022/10/04 02:09:38;;;;;;;9.50;8.70;;;12.20;99.90;;;;;;5013213;28;20413;-64
2022/10/04 02:12:05;;;;;;;10.00;8.97;;;12.20;99.90;;;;;;5013839;28;20402;-64
2022/10/04 02:14:33;;;;;;;10.20;8.60;;;12.20;99.90;;;;;;4995685;28;20468;-64
2022/10/04 02:17:04;;;;;;;10.33;9.20;;;12.20;99.90;;;;;;5013277;28;20470;-64
2022/10/04 02:19:37;;;;;;;9.50;8.87;;;12.30;99.90;;;;;;4995613;28;20399;-63
2022/10/04 02:22:04;;;;;;;10.20;9.30;;;12.30;99.90;;;;;;5013885;28;20437;-64
2022/10/04 02:24:36;;;;;;;9.80;8.90;;;12.30;99.90;;;;;;5012978;28;20511;-64
2022/10/04 02:27:02;;;;;;;9.20;8.50;;;12.30;99.90;;;;;;5013506;28;20424;-64
2022/10/04 02:29:27;;;;;;;8.93;8.27;;;12.30;99.90;;;;;;5012861;28;20402;-64
2022/10/04 02:34:39;;;;;;;8.93;8.13;;;12.30;99.90;;;;;;5012886;28;20164;-64
2022/10/04 02:37:07;;;;;;;9.50;8.70;;;12.30;99.90;;;;;;5013244;28;20515;-64
2022/10/04 02:39:38;;;;;;;9.10;8.30;;;12.30;99.90;;;;;;5012725;28;20414;-64
2022/10/04 02:42:24;;;;;;;9.20;8.50;;;12.40;99.90;;;;;;4995541;28;20488;-64
2022/10/04 02:44:59;;;;;;;10.40;9.27;;;12.30;99.90;;;;;;5002731;28;20431;-63
2022/10/04 02:47:36;;;;;;;9.90;8.90;;;12.30;99.90;;;;;;5012841;28;20421;-64
2022/10/04 02:50:16;;;;;;;12.37;9.63;;;12.20;99.90;;;;;;5013433;28;20758;-64
2022/10/04 02:52:46;;;;;;;9.73;8.93;;;12.20;99.90;;;;;;5012657;28;20417;-64
2022/10/04 02:55:23;;;;;;;12.00;9.23;;;12.20;99.90;;;;;;4995823;28;20767;-64
2022/10/04 02:57:51;;;;;;;9.63;8.63;;;12.20;99.90;;;;;;5013117;28;20461;-63
2022/10/04 03:00:20;;;;;;;9.83;8.83;;;12.20;99.90;;;;;;5013326;28;20861;-64
2022/10/04 03:03:11;;;;;;;9.07;8.37;;;12.20;99.90;;;;;;5012156;28;20410;-64
2022/10/04 03:05:39;;;;;;;9.50;8.50;;;12.10;99.90;;;;;;5012276;28;20465;-64
2022/10/04 03:08:06;;;;;;;9.17;8.33;;;12.20;99.90;;;;;;5012994;28;20932;-64
2022/10/04 03:10:34;;;;;;;10.33;8.87;;;12.20;99.90;;;;;;5012447;28;20493;-64
2022/10/04 03:13:01;;;;;;;9.93;9.13;;;12.20;99.90;;;;;;5012850;28;21032;-64
2022/10/04 03:15:26;;;;;;;9.10;8.20;;;12.20;99.90;;;;;;4994360;28;20406;-64
2022/10/04 03:17:52;;;;;;;10.80;9.80;;;12.20;99.90;;;;;;5013092;28;20420;-64
2022/10/04 03:20:20;;;;;;;9.60;8.90;;;12.20;99.90;;;;;;5013102;28;20420;-63
2022/10/04 03:22:51;;;;;;;10.70;9.20;;;12.20;99.90;;;;;;5012214;28;20171;-64
2022/10/04 03:25:22;;;;;;;9.10;8.30;;;12.20;99.90;;;;;;5012777;28;20402;-64
2022/10/04 03:27:50;;;;;;;10.60;8.93;;;12.20;99.90;;;;;;5012031;28;20452;-64
2022/10/04 03:30:19;;;;;;;10.20;9.07;;;12.10;99.90;;;;;;4994839;28;20412;-64
2022/10/04 03:32:46;;;;;;;11.23;9.30;;;12.10;99.90;;;;;;5011702;28;20449;-64
2022/10/04 03:35:34;;;;;;;9.57;8.80;;;12.20;99.90;;;;;;5012698;28;20415;-64
2022/10/04 03:38:03;;;;;;;10.00;9.00;;;12.20;99.90;;;;;;5012462;28;20424;-64
2022/10/04 03:40:31;;;;;;;10.93;9.90;;;12.20;99.90;;;;;;4994095;28;20426;-64
2022/10/04 03:43:00;;;;;;;9.90;9.10;;;12.20;99.90;;;;;;5012609;28;20404;-64
2022/10/04 03:45:27;;;;;;;10.03;9.03;;;12.20;99.90;;;;;;5011925;28;20402;-65
2022/10/04 03:47:57;;;;;;;10.63;9.63;;;12.20;99.90;;;;;;5012583;28;20414;-64
2022/10/04 03:50:33;;;;;;;10.70;9.60;;;12.10;99.90;;;;;;5012667;28;20881;-63
2022/10/04 03:53:08;;;;;;;11.73;9.90;;;12.10;99.90;;;;;;5012690;28;20948;-64
2022/10/04 03:55:42;;;;;;;11.03;10.00;;;12.30;99.90;;;;;;5012149;28;20395;-63
2022/10/04 03:58:15;;;;;;;9.53;8.73;;;12.20;99.90;;;;;;5012501;28;20899;-64
2022/10/04 04:00:52;;;;;;;11.50;10.53;;;12.20;99.90;;;;;;5011892;28;20447;-63
2022/10/04 04:03:19;;;;;;;10.13;9.37;;;12.20;99.90;;;;;;4995065;28;20766;-64
2022/10/04 04:05:51;;;;;;;10.53;9.50;;;12.30;99.90;;;;;;5011909;28;20602;-64
2022/10/04 04:08:32;;;;;;;12.13;10.20;;;12.20;99.90;;;;;;5012433;28;20505;-63
2022/10/04 04:11:01;;;;;;;10.60;9.80;;;12.10;99.90;;;;;;5012521;28;20540;-63
2022/10/04 04:13:50;;;;;;;9.80;8.90;;;12.20;99.90;;;;;;5011790;28;20406;-65
2022/10/04 04:16:19;;;;;;;10.07;9.20;;;12.20;99.90;;;;;;5012302;28;20458;-64
2022/10/04 04:18:47;;;;;;;10.17;9.17;;;12.20;99.90;;;;;;5011643;28;20414;-64
2022/10/04 04:21:17;;;;;;;10.03;9.10;;;12.20;99.90;;;;;;5012235;28;20405;-64
2022/10/04 04:23:50;;;;;;;10.63;9.67;;;12.20;99.90;;;;;;5011870;28;20409;-64
2022/10/04 04:26:41;;;;;;;10.37;9.57;;;12.20;99.90;;;;;;5013960;28;20406;-64
2022/10/04 04:29:30;;;;;;;9.63;8.80;;;12.20;99.90;;;;;;5015885;28;20411;-63
2022/10/04 04:32:30;;;;;;;9.53;8.63;;;12.20;99.90;;;;;;5015508;28;20427;-63
2022/10/04 04:35:07;;;;;;;9.00;8.30;;;12.20;99.90;;;;;;5015713;28;20404;-64
2022/10/04 04:37:36;;;;;;;9.03;8.20;;;12.10;99.90;;;;;;5014982;28;20445;-64
2022/10/04 04:40:20;;;;;;;9.80;8.90;;;12.20;99.90;;;;;;4948589;28;20823;-64
2022/10/04 04:42:48;;;;;;;9.00;8.20;;;12.00;99.90;;;;;;5014852;28;20418;-64
2022/10/04 04:45:21;;;;;;;8.97;8.27;;;12.10;99.90;;;;;;4997743;28;20928;-64
2022/10/04 04:47:50;;;;;;;10.67;9.40;;;12.10;99.90;;;;;;5014857;28;20414;-63
2022/10/04 04:50:39;;;;;;;10.97;10.07;;;12.10;99.90;;;;;;5015343;28;20462;-63
2022/10/04 04:53:14;;;;;;;8.10;7.37;;;12.10;99.90;;;;;;5015108;28;20409;-64
2022/10/04 04:55:44;;;;;;;9.17;8.30;;;12.10;99.90;;;;;;5014578;28;20442;-63
2022/10/04 04:58:20;;;;;;;8.77;8.00;;;12.10;99.90;;;;;;5015565;28;20418;-64
2022/10/04 05:01:00;;;;;;;10.43;9.17;;;12.10;99.90;;;;;;5014796;28;20811;-64
2022/10/04 05:03:29;;;;;;;10.73;9.77;;;12.10;99.90;;;;;;4997565;28;20905;-63
2022/10/04 05:05:57;;;;;;;9.57;8.60;;;12.00;99.90;;;;;;5014741;28;20515;-64
2022/10/04 05:08:27;;;;;;;9.43;8.43;;;12.00;99.90;;;;;;5015164;28;20767;-64
2022/10/04 05:11:12;;;;;;;10.20;9.17;;;12.00;99.90;;;;;;5014381;28;20413;-63
2022/10/04 05:14:15;;;;;;;8.40;7.60;;;12.00;99.90;;;;;;5014417;28;20422;-63
2022/10/04 05:16:45;;;;;;;12.00;11.03;;;12.00;99.90;;;;;;4980837;28;20513;-64
2022/10/04 05:19:27;;;;;;;9.40;8.50;;;12.00;99.90;;;;;;4997246;28;20464;-63
2022/10/04 05:21:55;;;;;;;10.00;9.00;;;12.10;99.90;;;;;;5014229;28;20459;-64
2022/10/04 05:24:35;;;;;;;9.77;8.97;;;12.10;99.90;;;;;;5014692;28;20422;-63
2022/10/04 05:27:12;;;;;;;8.50;7.70;;;12.10;99.90;;;;;;5014448;28;20420;-63
2022/10/04 05:29:46;;;;;;;8.80;7.90;;;12.10;99.90;;;;;;5014179;28;20410;-64
2022/10/04 05:32:41;;;;;;;11.53;10.53;;;12.10;99.90;;;;;;5014688;28;20869;-64
2022/10/04 05:35:18;;;;;;;9.90;9.20;;;12.10;99.90;;;;;;5014680;28;20815;-64
2022/10/04 05:38:02;;;;;;;11.10;10.10;;;12.00;99.90;;;;;;5013887;28;20453;-64
2022/10/04 05:40:50;;;;;;;9.47;8.60;;;12.00;99.90;;;;;;5014494;28;20475;-63
2022/10/04 05:43:40;;;;;;;13.93;9.50;;;12.00;99.90;;;;;;5014092;28;20501;-63
2022/10/04 05:46:27;;;;;;;10.43;9.40;;;11.90;99.90;;;;;;5003616;28;20509;-64
2022/10/04 05:49:14;;;;;;;10.97;9.97;;;12.00;99.90;;;;;;5003458;28;20520;-63
2022/10/04 05:51:48;;;;;;;15.73;9.63;;;11.90;99.90;;;;;;5013402;28;20406;-64
2022/10/04 05:54:20;;;;;;;10.50;9.43;;;11.90;99.90;;;;;;5014125;28;20845;-63
2022/10/04 05:57:15;;;;;;;12.93;11.97;;;11.90;99.90;;;;;;5013623;28;20987;-63
2022/10/04 06:00:00;;;;;;;10.50;9.50;;;11.90;99.90;;;;;;5013449;28;20770;-63
2022/10/04 06:02:54;;;;;;;14.30;11.07;;;12.00;99.90;;;;;;5013703;28;20816;-63
2022/10/04 06:05:40;;;;;;;13.63;9.80;;;12.00;99.90;;;;;;5013819;28;20735;-64
2022/10/04 06:08:14;;;;;;;11.77;10.60;;;12.10;99.90;;;;;;5013901;28;20406;-63
2022/10/04 06:10:54;;;;;;;14.27;9.60;;;12.10;99.90;;;;;;5013267;28;20403;-64
2022/10/04 06:13:22;;;;;;;12.67;11.20;;;12.00;99.90;;;;;;5013810;28;20405;-63
2022/10/04 06:16:03;;;;;;;15.50;13.20;;;12.00;99.90;;;;;;5012982;28;20553;-64
2022/10/04 06:19:08;;;;;;;11.30;10.20;;;12.10;99.90;;;;;;5013539;28;20407;-64
2022/10/04 06:21:51;;;;;;;12.63;11.33;;;12.10;99.90;;;;;;4996175;28;20823;-63
2022/10/04 06:24:38;;;;;;;12.87;11.67;;;12.20;99.90;;;;;;5013921;28;20430;-63
2022/10/04 06:27:22;;;;;;;12.80;11.50;;;12.20;99.90;;;;;;5013559;28;20418;-63
2022/10/04 06:30:01;;;;;;;13.50;11.43;;;12.20;99.90;;;;;;5012645;28;20866;-64
2022/10/04 06:32:45;;;;;;;18.13;12.47;;;12.20;99.90;;;;;;5013527;28;20486;-64
2022/10/04 06:35:32;;;;;;;11.23;9.83;;;12.20;99.90;;;;;;5013803;28;20758;-63
2022/10/04 06:38:07;;;;;;;12.13;10.97;;;12.30;99.90;;;;;;5012859;28;20417;-63
2022/10/04 06:40:49;;;;;;;11.43;10.33;;;12.30;99.90;;;;;;5013448;28;20418;-64
2022/10/04 06:43:46;;;;;;;11.80;9.77;;;12.30;99.90;;;;;;5013546;28;20492;-64
2022/10/04 06:46:16;;;;;;;11.17;9.23;;;12.40;99.90;;;;;;5013470;28;20433;-64
2022/10/04 06:48:47;;;;;;;15.73;11.40;;;12.40;99.90;;;;;;5012794;28;20422;-64
2022/10/04 06:51:55;;;;;;;15.97;12.73;;;12.50;99.90;;;;;;5013317;28;20472;-64
2022/10/04 06:54:39;;;;;;;12.50;11.20;;;12.50;99.90;;;;;;5013357;28;20430;-64
2022/10/04 06:57:07;;;;;;;10.43;9.30;;;12.50;99.90;;;;;;5013032;28;20511;-63
2022/10/04 06:59:39;;;;;;;12.83;11.53;;;12.60;99.90;;;;;;5013110;28;20415;-64
2022/10/04 07:02:30;;;;;;;14.67;11.20;;;12.60;99.90;;;;;;5013014;28;20421;-64
2022/10/04 07:05:29;;;;;;;10.63;8.77;;;12.70;99.90;;;;;;5012516;28;20725;-64
2022/10/04 07:08:09;;;;;;;10.20;9.00;;;12.60;99.90;;;;;;5032025;28;20480;-64
2022/10/04 07:10:46;;;;;;;9.87;8.97;;;12.70;99.90;;;;;;5032507;28;20966;-64
2022/10/04 07:13:26;;;;;;;11.50;10.40;;;12.80;99.90;;;;;;5032619;28;20397;-64
2022/10/04 07:15:58;;;;;;;10.43;9.53;;;12.90;99.90;;;;;;5032033;28;20554;-64
2022/10/04 07:18:36;;;;;;;10.13;9.23;;;12.90;99.90;;;;;;5032636;28;20936;-64
2022/10/04 07:21:12;;;;;;;9.63;8.77;;;13.00;99.90;;;;;;5031982;28;20863;-64
2022/10/04 07:24:02;;;;;;;11.77;10.60;;;13.00;99.90;;;;;;5032348;28;20770;-68
2022/10/04 07:26:43;;;;;;;11.17;10.10;;;13.10;99.90;;;;;;5032782;28;20446;-64
2022/10/04 07:29:40;;;;;;;13.03;11.70;;;13.10;99.90;;;;;;5032633;28;20415;-64
2022/10/04 07:32:35;;;;;;;10.63;9.30;;;13.20;99.90;;;;;;5032498;28;20389;-64
2022/10/04 07:35:12;;;;;;;12.13;10.00;;;13.30;99.90;;;;;;5001689;28;20433;-64
2022/10/04 07:37:50;;;;;;;13.17;11.17;;;13.30;99.90;;;;;;5014727;28;20855;-64
2022/10/04 07:40:57;;;;;;;13.87;10.03;;;13.40;99.90;;;;;;5032516;28;20415;-63
2022/10/04 07:43:30;;;;;;;9.93;9.03;;;13.50;99.90;;;;;;5032503;28;20893;-64
2022/10/04 07:46:39;;;;;;;11.50;9.73;;;13.50;99.90;;;;;;5031554;28;20407;-64
2022/10/04 07:49:15;;;;;;;10.60;9.60;;;13.60;99.90;;;;;;5011280;28;20521;-64
2022/10/04 07:52:11;;;;;;;11.43;9.30;;;13.60;99.90;;;;;;5031749;28;20391;-65
2022/10/04 07:55:14;;;;;;;12.07;9.50;;;13.70;99.90;;;;;;5032279;28;20894;-64
2022/10/04 07:57:59;;;;;;;11.20;9.57;;;13.90;99.90;;;;;;5028540;28;20498;-68
2022/10/04 08:00:43;;;;;;;10.43;9.40;;;13.90;99.90;;;;;;5032637;28;20393;-64
2022/10/04 08:03:39;;;;;;;13.77;9.13;;;14.00;99.90;;;;;;5035841;28;20393;-63
2022/10/04 08:06:13;;;;;;;12.50;8.70;;;14.10;99.90;;;;;;5028190;28;20476;-64
2022/10/04 08:09:01;;;;;;;10.40;9.40;;;14.20;99.90;;;;;;5016204;28;20408;-64
2022/10/04 08:11:48;;;;;;;21.30;10.97;;;14.20;99.90;;;;;;5015954;28;20386;-64
2022/10/04 08:14:51;;;;;;;12.80;7.63;;;14.30;99.90;;;;;;4933728;28;20428;-64
2022/10/04 08:17:43;;;;;;;7.87;7.17;;;14.40;99.90;;;;;;5016280;28;20498;-64
2022/10/04 08:20:34;;;;;;;10.37;8.47;;;14.50;99.90;;;;;;5016045;28;20497;-64
2022/10/04 08:23:15;;;;;;;13.00;10.60;;;14.60;99.90;;;;;;5015317;28;20429;-64
2022/10/04 08:25:53;;;;;;;9.63;8.60;;;14.70;99.90;;;;;;5015917;28;20417;-64
2022/10/04 08:31:25;;;;;;;11.00;8.10;;;14.80;99.90;;;;;;5015279;28;20414;-63
2022/10/04 08:34:21;;;;;;;9.47;8.27;;;14.90;99.90;;;;;;5015193;28;20418;-64
2022/10/04 08:37:12;;;;;;;8.70;8.00;;;15.00;99.90;;;;;;5015208;28;20451;-64
2022/10/04 08:40:05;;;;;;;9.30;8.40;;;15.10;99.90;;;;;;5015622;28;20409;-64
2022/10/04 08:43:05;;;;;;;11.17;8.20;;;15.30;99.90;;;;;;5015578;28;20434;-64
2022/10/04 08:45:55;;;;;;;10.30;8.63;;;15.40;99.90;;;;;;5010761;28;20582;-64
2022/10/04 08:48:27;;;;;;;7.97;6.90;;;15.50;99.90;;;;;;5015179;28;20899;-64
2022/10/04 08:51:14;;;;;;;9.90;8.40;;;15.60;99.90;;;;;;5014748;28;20413;-64
2022/10/04 08:54:04;;;;;;;9.07;8.13;;;15.70;99.90;;;;;;5015415;28;20431;-64
2022/10/04 08:56:44;;;;;;;7.83;7.03;;;15.80;99.90;;;;;;5015241;28;20459;-64
2022/10/04 08:59:22;;;;;;;10.03;8.77;;;15.90;99.90;;;;;;5015338;28;20418;-64
2022/10/04 09:02:27;;;;;;;7.27;6.67;;;16.10;99.90;;;;;;5014881;28;20417;-64
2022/10/04 09:05:17;;;;;;;8.37;7.57;;;16.20;99.90;;;;;;5003712;28;20917;-64
2022/10/04 09:08:21;;;;;;;7.03;6.33;;;16.30;99.90;;;;;;5034900;28;20421;-64
2022/10/04 09:11:09;;;;;;;6.97;6.37;;;16.40;99.90;;;;;;5034290;28;20416;-64
2022/10/04 09:14:13;;;;;;;6.50;6.00;;;16.60;99.90;;;;;;5034857;28;20402;-64
2022/10/04 09:16:46;;;;;;;8.13;7.40;;;16.80;99.90;;;;;;4990474;28;20481;-64
2022/10/04 09:19:21;;;;;;;6.10;5.60;;;16.90;99.90;;;;;;5034617;28;20421;-64
2022/10/04 09:22:15;;;;;;;5.80;5.30;;;17.10;99.90;;;;;;5034040;28;20924;-64
2022/10/04 09:24:43;;;;;;;6.27;5.67;;;17.20;98.50;;;;;;5034617;28;20745;-64
2022/10/04 09:27:49;;;;;;;6.53;5.90;;;17.60;98.60;;;;;;5033802;28;20748;-63
2022/10/04 09:30:21;;;;;;;7.20;6.50;;;17.90;99.00;;;;;;5016974;28;20409;-64
2022/10/04 09:33:18;;;;;;;6.30;5.70;;;18.30;99.00;;;;;;5033840;28;20409;-64
2022/10/04 09:36:04;;;;;;;7.17;6.57;;;18.70;96.50;;;;;;5006490;28;20417;-64
2022/10/04 09:38:53;;;;;;;6.07;5.67;;;19.00;96.10;;;;;;5034387;28;20815;-64
2022/10/04 09:41:57;;;;;;;7.20;6.63;;;19.30;94.60;;;;;;5034276;28;20414;-64
2022/10/04 09:44:45;;;;;;;7.10;6.20;;;19.70;94.90;;;;;;5034127;28;20440;-64
2022/10/04 09:47:42;;;;;;;7.07;6.37;;;20.10;93.60;;;;;;5033244;28;20428;-64
2022/10/04 09:50:34;;;;;;;5.87;5.37;;;20.40;91.70;;;;;;5033433;28;20459;-64
2022/10/04 09:53:15;;;;;;;5.83;5.20;;;20.40;91.50;;;;;;5033768;28;20405;-64
2022/10/04 09:56:02;;;;;;;5.80;5.20;;;20.80;90.80;;;;;;5033557;28;20915;-64
2022/10/04 09:58:57;;;;;;;6.73;6.07;;;21.00;90.20;;;;;;5034083;28;20421;-64
2022/10/04 10:01:27;;;;;;;6.33;5.83;;;21.40;90.10;;;;;;5033664;28;20394;-64
2022/10/04 10:04:22;;;;;;;6.90;6.40;;;21.60;89.30;;;;;;5015646;28;20443;-64
2022/10/04 10:07:00;;;;;;;7.53;5.40;;;21.90;87.10;;;;;;5020128;28;20465;-69
2022/10/04 10:16:24;;;;;;;5.73;5.33;;;22.40;84.30;;;;;;5012858;28;20961;-63
2022/10/04 10:19:15;;;;;;;5.23;4.83;;;22.20;78.20;;;;;;5013464;28;20406;-64
2022/10/04 10:22:02;;;;;;;5.97;5.47;;;22.10;81.30;;;;;;5013772;28;20464;-63
2022/10/04 10:24:56;;;;;;;6.60;5.40;;;22.00;82.20;;;;;;5013091;28;20400;-63
2022/10/04 10:27:54;;;;;;;5.73;5.10;;;22.30;83.00;;;;;;5013662;28;20424;-64
2022/10/04 10:30:38;;;;;;;5.70;5.23;;;22.50;82.00;;;;;;5013580;28;20474;-64
2022/10/04 10:33:23;;;;;;;6.60;6.10;;;22.50;80.20;;;;;;5012952;28;20468;-64
2022/10/04 10:36:22;;;;;;;5.70;5.20;;;22.70;82.10;;;;;;5013425;28;20434;-64
2022/10/04 10:39:07;;;;;;;5.27;4.97;;;22.90;79.50;;;;;;5013450;28;20496;-63
2022/10/04 10:41:51;;;;;;;6.80;6.40;;;23.10;81.00;;;;;;5013568;28;20394;-63
2022/10/04 10:44:25;;;;;;;5.83;5.30;;;23.10;77.70;;;;;;5013045;28;20748;-63
2022/10/04 10:47:17;;;;;;;5.63;5.13;;;23.10;73.00;;;;;;5012884;28;20768;-68
2022/10/04 10:50:01;;;;;;;8.60;4.80;;;23.10;79.20;;;;;;5012818;28;20453;-64
2022/10/04 10:52:46;;;;;;;5.93;5.20;;;23.50;77.90;;;;;;5013231;28;20728;-64
2022/10/04 10:55:33;;;;;;;5.77;5.17;;;23.90;76.60;;;;;;5012299;28;20464;-63
2022/10/04 10:58:24;;;;;;;5.43;5.03;;;23.90;73.90;;;;;;5012579;28;20421;-63
2022/10/04 11:01:12;;;;;;;4.80;4.40;;;24.10;75.80;;;;;;5013124;28;20453;-63
2022/10/04 11:03:58;;;;;;;6.00;5.00;;;24.30;71.90;;;;;;5013039;28;20424;-64
2022/10/04 11:07:01;;;;;;;5.27;4.53;;;24.50;72.60;;;;;;5012989;28;20470;-63
2022/10/04 11:09:46;;;;;;;5.53;5.03;;;24.70;73.30;;;;;;4995172;28;20429;-63
2022/10/04 11:12:29;;;;;;;4.60;4.07;;;24.90;69.90;;;;;;4945592;28;20933;-63
2022/10/04 11:15:15;;;;;;;4.60;4.30;;;24.80;69.40;;;;;;5012288;28;20393;-64
2022/10/04 11:18:39;;;;;;;5.20;4.60;;;24.70;69.80;;;;;;5012894;28;20445;-63
2022/10/04 11:21:14;;;;;;;5.13;4.67;;;24.60;69.90;;;;;;4979120;28;20434;-64
2022/10/04 11:24:17;;;;;;;4.57;4.17;;;24.80;68.40;;;;;;5012945;28;20405;-64
2022/10/04 11:26:54;;;;;;;5.03;4.70;;;24.80;65.40;;;;;;5013056;28;20410;-63
2022/10/04 11:29:29;;;;;;;4.90;4.50;;;24.80;66.60;;;;;;5012665;28;20502;-64
2022/10/04 11:32:01;;;;;;;4.50;4.20;;;24.70;64.60;;;;;;5011897;28;20423;-68
2022/10/04 11:34:49;;;;;;;4.80;4.30;;;24.40;66.80;;;;;;5012889;28;20414;-64
2022/10/04 11:37:33;;;;;;;5.67;5.17;;;24.10;67.90;;;;;;5015962;28;20469;-64
2022/10/04 11:40:20;;;;;;;5.20;4.70;;;23.70;65.40;;;;;;5015936;28;20425;-64
2022/10/04 11:42:52;;;;;;;4.00;3.60;;;23.30;70.50;;;;;;5016791;28;20432;-63
2022/10/04 11:45:32;;;;;;;4.50;3.80;;;23.50;67.50;;;;;;5015945;28;20409;-63
2022/10/04 11:48:31;;;;;;;16.00;4.90;;;23.40;69.60;;;;;;5016311;28;20628;-64
2022/10/04 11:51:26;;;;;;;4.40;3.87;;;23.60;70.30;;;;;;5016003;28;20489;-63
2022/10/04 11:54:02;;;;;;;4.47;3.93;;;23.80;68.70;;;;;;5016540;28;20756;-63
2022/10/04 11:56:32;;;;;;;4.00;3.80;;;23.90;66.50;;;;;;5016350;28;20453;-63
2022/10/04 11:59:10;;;;;;;5.20;4.70;;;23.60;65.50;;;;;;5015782;28;20901;-64
2022/10/04 12:01:58;;;;;;;5.30;4.80;;;23.30;67.20;;;;;;5016445;28;20437;-64
2022/10/04 12:04:38;;;;;;;4.17;3.87;;;23.20;69.90;;;;;;5016293;28;20485;-64
2022/10/04 12:07:25;;;;;;;4.80;4.03;;;23.30;69.50;;;;;;5015873;28;20825;-64
2022/10/04 12:09:59;;;;;;;3.70;3.40;;;23.20;67.30;;;;;;5016179;28;20773;-63
2022/10/04 12:12:51;;;;;;;3.87;3.60;;;23.20;66.60;;;;;;5016087;28;20445;-63
2022/10/04 12:15:31;;;;;;;3.77;3.50;;;22.80;65.70;;;;;;5015441;28;20472;-64
2022/10/04 12:18:19;;;;;;;3.90;3.50;;;22.70;66.10;;;;;;5015395;28;20460;-63
2022/10/04 12:21:06;;;;;;;3.60;3.40;;;22.70;68.30;;;;;;5015674;28;20544;-63
2022/10/04 12:23:32;;;;;;;3.73;3.43;;;22.40;66.80;;;;;;4997931;28;20544;-63
2022/10/04 12:26:19;;;;;;;4.53;3.83;;;22.30;68.80;;;;;;5014941;28;20532;-64
2022/10/04 12:28:50;;;;;;;3.90;3.60;;;22.20;70.10;;;;;;5015925;28;20241;-63
2022/10/04 12:31:24;;;;;;;4.10;3.80;;;22.00;69.50;;;;;;5015193;28;21097;-63
2022/10/04 12:34:03;;;;;;;3.77;3.57;;;21.90;68.90;;;;;;5015917;28;20772;-63
2022/10/04 12:36:47;;;;;;;4.47;3.30;;;21.70;69.70;;;;;;5015718;28;20540;-64
2022/10/04 12:39:25;;;;;;;4.80;4.07;;;21.70;71.20;;;;;;5014716;28;20850;-63
2022/10/04 12:42:08;;;;;;;4.13;3.83;;;21.50;68.80;;;;;;5015625;28;20841;-63
2022/10/04 12:44:34;;;;;;;4.27;3.97;;;21.50;70.70;;;;;;5015626;28;20403;-63
2022/10/04 12:47:10;;;;;;;3.50;3.30;;;21.50;69.40;;;;;;5014308;28;20428;-64
2022/10/04 12:49:55;;;;;;;4.10;3.80;;;21.50;70.10;;;;;;5015537;28;20203;-63
2022/10/04 12:52:26;;;;;;;3.23;3.03;;;21.50;70.00;;;;;;5014797;28;20402;-64
2022/10/04 12:55:07;;;;;;;3.93;3.73;;;21.40;69.20;;;;;;5015351;28;20417;-63
2022/10/04 12:57:52;;;;;;;3.37;3.27;;;21.40;70.50;;;;;;5015149;28;20450;-63
2022/10/04 13:00:21;;;;;;;4.00;3.70;;;21.30;69.30;;;;;;5014572;28;20433;-63
2022/10/04 13:02:52;;;;;;;3.70;3.50;;;21.30;69.50;;;;;;5015230;28;20521;-63
2022/10/04 13:05:44;;;;;;;3.80;3.60;;;21.20;70.10;;;;;;5014334;28;20783;-64
2022/10/04 13:08:31;;;;;;;4.50;4.10;;;21.20;70.40;;;;;;5014535;28;20402;-63
2022/10/04 13:11:04;;;;;;;5.20;4.80;;;21.20;71.60;;;;;;5015177;28;20449;-63
2022/10/04 13:14:14;;;;;;;3.60;3.33;;;21.10;71.20;;;;;;5015001;28;20406;-63
2022/10/04 13:16:58;;;;;;;3.60;3.30;;;21.00;72.50;;;;;;5015063;28;20468;-63
2022/10/04 13:20:09;;;;;;;3.87;3.63;;;20.90;71.90;;;;;;5014963;28;20454;-63
2022/10/04 13:22:45;;;;;;;4.23;3.97;;;20.60;73.50;;;;;;5014840;28;20950;-63
2022/10/04 13:25:31;;;;;;;4.07;3.77;;;20.40;74.40;;;;;;5014217;28;20406;-63
2022/10/04 13:28:05;;;;;;;4.10;3.90;;;20.40;76.50;;;;;;5014773;28;20798;-64
2022/10/04 13:30:31;;;;;;;3.97;3.67;;;20.50;77.60;;;;;;5014560;28;20421;-63
2022/10/04 13:33:14;;;;;;;4.40;4.10;;;20.60;77.20;;;;;;5014571;28;20765;-63
2022/10/04 13:36:12;;;;;;;3.70;3.50;;;20.70;76.30;;;;;;5014669;28;20167;-64
2022/10/04 13:38:54;;;;;;;5.50;3.50;;;20.80;76.70;;;;;;5002546;28;20437;-63
2022/10/04 13:41:50;;;;;;;3.30;3.00;;;20.90;75.50;;;;;;5013866;28;20505;-63
2022/10/04 13:44:33;;;;;;;5.43;4.13;;;20.90;74.50;;;;;;5013517;28;20769;-63
2022/10/04 13:47:33;;;;;;;4.47;3.63;;;21.00;75.30;;;;;;4996491;28;20436;-63
2022/10/04 13:49:59;;;;;;;4.37;4.00;;;21.10;73.20;;;;;;5003605;28;20921;-63
2022/10/04 13:59:05;;;;;;;3.57;3.37;;;21.40;72.10;;;;;;5013108;28;20410;-63
2022/10/04 14:01:52;;;;;;;5.77;4.20;;;21.30;69.90;;;;;;5014465;28;20402;-63
2022/10/04 14:04:47;;;;;;;4.17;3.87;;;21.30;70.40;;;;;;5013319;28;20448;-63
2022/10/04 14:07:37;;;;;;;4.00;3.77;;;21.40;68.80;;;;;;5013048;28;20876;-63